Time;durP1;ratioP1;P1;durP2;ratioP2;P2;SDS_P1;SDS_P2;PMS_P1;PMS_P2;Temp;Humidity;BMP_temperature;BMP_pressure;BME280_temperature;BME280_humidity;BME280_pressure;Samples;Min_cycle;Max_cycle;Signal;HPM_P1;HPM_P2
2022/12/01 00:00:52;;;;;;;32.50;16.37;;;6.40;99.90;;;;;;5078003;28;20232;-77
2022/12/01 00:03:18;;;;;;;31.67;15.73;;;6.40;99.90;;;;;;5079775;28;20161;-78
2022/12/01 00:05:43;;;;;;;32.47;17.20;;;6.40;99.90;;;;;;5079115;28;20174;-78
2022/12/01 00:08:09;;;;;;;34.83;18.37;;;6.40;99.90;;;;;;5077382;28;20552;-79
2022/12/01 00:10:35;;;;;;;39.37;19.90;;;6.40;99.90;;;;;;5078998;28;20182;-79
2022/12/01 00:13:02;;;;;;;38.07;19.63;;;6.40;99.90;;;;;;5077451;28;20159;-78
2022/12/01 00:15:34;;;;;;;44.30;21.70;;;6.40;99.90;;;;;;5077731;28;20550;-79
2022/12/01 00:18:00;;;;;;;40.03;20.27;;;6.40;99.90;;;;;;5079426;28;20166;-78
2022/12/01 00:20:26;;;;;;;37.33;19.03;;;6.40;99.90;;;;;;5080248;28;20167;-78
2022/12/01 00:22:52;;;;;;;37.30;19.83;;;6.30;99.90;;;;;;5078202;28;20500;-79
2022/12/01 00:25:19;;;;;;;40.50;19.70;;;6.40;99.90;;;;;;5079875;28;20175;-78
2022/12/01 00:27:49;;;;;;;38.00;19.87;;;6.30;99.90;;;;;;5079798;28;20188;-79
2022/12/01 00:30:17;;;;;;;38.33;18.53;;;6.40;99.90;;;;;;5079084;28;20525;-78
2022/12/01 00:32:43;;;;;;;43.10;19.73;;;6.40;99.90;;;;;;5077845;28;20200;-79
2022/12/01 00:35:09;;;;;;;38.97;19.07;;;6.40;99.90;;;;;;5078775;28;20171;-79
2022/12/01 00:37:35;;;;;;;45.77;20.53;;;6.40;99.90;;;;;;5079846;28;20616;-79
2022/12/01 00:40:01;;;;;;;46.77;20.03;;;6.40;99.90;;;;;;5077643;28;20193;-80
2022/12/01 00:42:26;;;;;;;39.90;19.47;;;6.30;99.90;;;;;;5080044;28;20195;-78
2022/12/01 00:44:52;;;;;;;42.87;19.37;;;6.30;99.90;;;;;;5079773;28;20190;-79
2022/12/01 00:47:19;;;;;;;43.07;19.50;;;6.30;99.90;;;;;;5079313;28;20178;-77
2022/12/01 00:49:45;;;;;;;42.37;19.60;;;6.30;99.90;;;;;;5079986;28;20199;-78
2022/12/01 00:52:11;;;;;;;40.37;19.93;;;6.30;99.90;;;;;;5077503;28;20263;-79
2022/12/01 00:54:37;;;;;;;40.73;19.27;;;6.30;99.90;;;;;;5082148;28;20521;-79
2022/12/01 00:57:02;;;;;;;39.17;18.27;;;6.40;99.90;;;;;;5081162;28;20224;-79
2022/12/01 00:59:28;;;;;;;40.47;18.27;;;6.30;99.90;;;;;;5083190;28;20240;-78
2022/12/01 01:01:53;;;;;;;45.87;21.57;;;6.30;99.90;;;;;;5081622;28;20302;-79
2022/12/01 01:04:19;;;;;;;43.60;19.53;;;6.30;99.90;;;;;;5083671;28;20202;-78
2022/12/01 01:06:45;;;;;;;42.53;20.73;;;6.30;99.90;;;;;;5081896;28;20540;-79
2022/12/01 01:09:12;;;;;;;36.73;18.80;;;6.30;99.90;;;;;;5083206;28;20727;-78
2022/12/01 01:11:38;;;;;;;37.73;18.87;;;6.30;99.90;;;;;;5081154;28;20214;-77
2022/12/01 01:14:04;;;;;;;44.43;20.27;;;6.40;99.90;;;;;;5083450;28;20617;-78
2022/12/01 01:16:30;;;;;;;38.70;19.03;;;6.40;99.90;;;;;;5083250;28;20174;-80
2022/12/01 01:18:57;;;;;;;43.23;20.40;;;6.30;99.90;;;;;;5083477;28;20195;-79
2022/12/01 01:21:23;;;;;;;40.33;18.40;;;6.40;99.90;;;;;;5081829;28;20209;-79
2022/12/01 01:23:51;;;;;;;45.43;19.50;;;6.40;99.90;;;;;;5084022;28;20171;-79
2022/12/01 01:26:20;;;;;;;47.47;20.97;;;6.40;99.90;;;;;;5083286;28;20258;-80
2022/12/01 01:28:47;;;;;;;42.77;20.90;;;6.40;99.90;;;;;;5081631;28;20603;-79
2022/12/01 01:31:15;;;;;;;47.53;21.60;;;6.40;99.90;;;;;;5082139;28;20197;-78
2022/12/01 01:33:42;;;;;;;49.73;22.90;;;6.40;99.90;;;;;;5082710;28;20268;-79
2022/12/01 01:36:08;;;;;;;50.47;22.50;;;6.40;99.90;;;;;;5083597;28;20202;-79
2022/12/01 01:38:33;;;;;;;57.10;23.70;;;6.40;99.90;;;;;;5083892;28;20186;-79
2022/12/01 01:40:59;;;;;;;53.10;23.47;;;6.40;99.90;;;;;;5083485;28;20221;-79
2022/12/01 01:43:51;;;;;;;56.20;26.13;;;6.40;99.90;;;;;;5082835;28;20323;-79
2022/12/01 01:46:36;;;;;;;59.37;24.73;;;6.40;99.90;;;;;;5084627;28;20609;-78
2022/12/01 01:49:06;;;;;;;58.93;23.47;;;6.30;99.90;;;;;;5084829;28;20219;-79
2022/12/01 01:51:49;;;;;;;61.87;25.43;;;6.30;99.90;;;;;;5085201;28;20183;-79
2022/12/01 01:54:25;;;;;;;60.03;24.20;;;6.30;99.90;;;;;;5084814;28;20163;-80
2022/12/01 01:56:52;;;;;;;58.63;23.60;;;6.40;99.90;;;;;;5084792;28;20160;-79
2022/12/01 01:59:22;;;;;;;62.90;26.17;;;6.30;99.90;;;;;;5084667;28;20223;-77
2022/12/01 02:01:55;;;;;;;58.53;25.27;;;6.40;99.90;;;;;;5084597;28;20219;-77
2022/12/01 02:04:23;;;;;;;60.93;25.53;;;6.30;99.90;;;;;;5083736;28;20166;-80
2022/12/01 02:06:48;;;;;;;63.00;25.43;;;6.40;99.90;;;;;;5083157;28;20194;-80
2022/12/01 02:09:14;;;;;;;75.53;28.00;;;6.40;99.90;;;;;;5084133;28;20312;-79
2022/12/01 02:12:10;;;;;;;66.57;27.83;;;6.30;99.90;;;;;;5083383;28;20234;-77
2022/12/01 02:14:41;;;;;;;67.13;26.27;;;6.30;99.90;;;;;;5084098;28;20170;-80
2022/12/01 02:17:25;;;;;;;77.77;28.83;;;6.40;99.90;;;;;;5085794;28;20178;-79
2022/12/01 02:20:20;;;;;;;75.73;28.47;;;6.30;99.90;;;;;;5086166;28;20196;-78
2022/12/01 02:23:04;;;;;;;67.10;26.77;;;6.30;99.90;;;;;;5086454;28;20215;-79
2022/12/01 02:26:02;;;;;;;74.27;26.60;;;6.30;99.90;;;;;;5086306;28;20171;-79
2022/12/01 02:28:58;;;;;;;68.33;25.93;;;6.30;99.90;;;;;;5058209;28;20821;-79
2022/12/01 02:31:42;;;;;;;75.83;27.70;;;6.30;99.90;;;;;;5087970;28;20197;-79
2022/12/01 02:34:33;;;;;;;61.90;26.37;;;6.30;99.90;;;;;;5086486;28;20182;-80
2022/12/01 02:37:09;;;;;;;70.07;27.97;;;6.30;99.90;;;;;;5086429;28;20159;-80
2022/12/01 02:39:39;;;;;;;79.63;29.37;;;6.30;99.90;;;;;;5086692;28;20169;-79
2022/12/01 02:42:48;;;;;;;81.57;29.53;;;6.30;99.90;;;;;;5087870;28;20225;-77
2022/12/01 02:45:09;;;;;;;65.27;26.53;;;6.30;99.90;;;;;;5090395;28;20179;-78
2022/12/01 02:47:37;;;;;;;61.77;25.70;;;6.30;99.90;;;;;;5082735;28;20173;-77
2022/12/01 02:50:04;;;;;;;68.60;27.20;;;6.30;99.90;;;;;;5077705;28;20226;-78
2022/12/01 02:52:30;;;;;;;68.63;27.93;;;6.30;99.90;;;;;;5078647;28;20201;-78
2022/12/01 02:54:56;;;;;;;60.10;25.80;;;6.30;99.90;;;;;;5078051;28;20181;-78
2022/12/01 02:57:22;;;;;;;72.03;26.83;;;6.40;99.90;;;;;;5078832;28;20639;-77
2022/12/01 02:59:52;;;;;;;65.73;27.50;;;6.40;99.90;;;;;;5078152;28;20230;-79
2022/12/01 03:02:41;;;;;;;57.93;24.40;;;6.30;99.90;;;;;;5077309;28;20212;-77
2022/12/01 03:05:25;;;;;;;61.73;25.43;;;6.40;99.90;;;;;;5078616;28;20161;-78
2022/12/01 03:08:00;;;;;;;58.93;24.67;;;6.40;99.90;;;;;;5076667;28;20632;-78
2022/12/01 03:10:47;;;;;;;56.20;24.20;;;6.40;99.90;;;;;;5076634;28;20240;-77
2022/12/01 03:13:54;;;;;;;56.00;22.67;;;6.40;99.90;;;;;;5078025;28;20174;-79
2022/12/01 03:16:30;;;;;;;57.37;23.40;;;6.40;99.90;;;;;;5077992;28;20201;-78
2022/12/01 03:19:03;;;;;;;46.07;21.10;;;6.40;99.90;;;;;;5077497;28;20623;-78
2022/12/01 03:21:36;;;;;;;51.27;22.73;;;6.40;99.90;;;;;;5077949;28;20195;-78
2022/12/01 03:24:13;;;;;;;58.40;24.27;;;6.40;99.90;;;;;;5077794;28;20184;-77
2022/12/01 03:26:41;;;;;;;59.33;24.87;;;6.40;99.90;;;;;;5076164;28;20193;-78
2022/12/01 03:29:40;;;;;;;69.13;30.00;;;6.40;99.90;;;;;;5077868;28;20202;-78
2022/12/01 03:32:14;;;;;;;76.87;29.93;;;6.30;99.90;;;;;;5078177;28;20563;-78
2022/12/01 03:34:56;;;;;;;74.60;30.73;;;6.30;99.90;;;;;;5076475;28;20164;-78
2022/12/01 03:37:30;;;;;;;73.37;29.93;;;6.30;99.90;;;;;;5077569;28;20163;-78
2022/12/01 03:39:56;;;;;;;71.27;30.83;;;6.30;99.90;;;;;;5077674;28;20161;-79
2022/12/01 03:42:27;;;;;;;68.07;29.70;;;6.30;99.90;;;;;;5075564;28;20226;-78
2022/12/01 03:44:56;;;;;;;58.07;27.27;;;6.30;99.90;;;;;;5075860;28;20261;-78
2022/12/01 03:47:30;;;;;;;66.03;27.23;;;6.30;99.90;;;;;;5078026;28;20213;-79
2022/12/01 03:49:59;;;;;;;59.33;25.80;;;6.30;99.90;;;;;;5077370;28;20194;-78
2022/12/01 03:52:30;;;;;;;56.47;25.43;;;6.30;99.90;;;;;;5076270;28;20240;-79
2022/12/01 03:55:25;;;;;;;62.77;26.23;;;6.30;99.90;;;;;;5077593;28;20496;-78
2022/12/01 03:58:09;;;;;;;54.83;25.17;;;6.30;99.90;;;;;;5077819;28;20160;-78
2022/12/01 04:00:36;;;;;;;63.77;25.10;;;6.30;99.90;;;;;;5075718;28;20250;-79
2022/12/01 04:03:03;;;;;;;54.37;24.80;;;6.40;99.90;;;;;;5077145;28;20645;-78
2022/12/01 04:05:29;;;;;;;58.90;23.90;;;6.40;99.90;;;;;;5076727;28;20270;-78
2022/12/01 04:07:55;;;;;;;57.73;23.53;;;6.40;99.90;;;;;;5076323;28;20166;-78
2022/12/01 04:10:21;;;;;;;52.63;22.80;;;6.40;99.90;;;;;;5076956;28;20183;-78
2022/12/01 04:12:46;;;;;;;54.10;22.90;;;6.30;99.90;;;;;;5075419;28;20265;-78
2022/12/01 04:15:13;;;;;;;44.93;21.27;;;6.40;99.90;;;;;;5075336;28;20556;-78
2022/12/01 04:17:42;;;;;;;47.00;20.73;;;6.30;99.90;;;;;;5075623;28;20186;-78
2022/12/01 04:20:09;;;;;;;50.23;20.57;;;6.30;99.90;;;;;;5077422;28;20236;-78
2022/12/01 04:22:35;;;;;;;42.33;20.27;;;6.30;99.90;;;;;;5077749;28;20194;-78
2022/12/01 04:25:02;;;;;;;46.63;20.47;;;6.30;99.90;;;;;;5078646;28;20197;-77
2022/12/01 04:27:27;;;;;;;44.30;21.03;;;6.30;99.90;;;;;;5077272;28;20237;-78
2022/12/01 04:29:53;;;;;;;40.20;19.37;;;6.30;99.90;;;;;;5082795;28;20268;-78
2022/12/01 04:32:18;;;;;;;45.23;19.77;;;6.30;99.90;;;;;;5082561;28;20193;-78
2022/12/01 04:34:44;;;;;;;42.23;19.73;;;6.30;99.90;;;;;;5082605;28;20192;-78
2022/12/01 04:37:10;;;;;;;41.07;19.73;;;6.30;99.90;;;;;;5082914;28;20268;-78
2022/12/01 04:39:37;;;;;;;39.53;18.73;;;6.30;99.90;;;;;;5083842;28;20175;-79
2022/12/01 04:42:03;;;;;;;43.57;19.57;;;6.30;99.90;;;;;;5082987;28;20217;-79
2022/12/01 04:44:29;;;;;;;41.30;20.23;;;6.30;99.90;;;;;;5081317;28;20179;-78
2022/12/01 04:46:55;;;;;;;42.23;19.93;;;6.30;99.90;;;;;;5082395;28;20324;-79
2022/12/01 04:49:21;;;;;;;42.17;20.60;;;6.30;99.90;;;;;;5086280;28;20194;-80
2022/12/01 04:51:47;;;;;;;38.87;20.03;;;6.30;99.90;;;;;;5087382;28;20256;-78
2022/12/01 04:54:13;;;;;;;40.33;19.43;;;6.30;99.90;;;;;;5081916;28;20182;-79
2022/12/01 04:56:39;;;;;;;42.67;20.50;;;6.30;99.90;;;;;;5088185;28;20179;-79
2022/12/01 04:59:04;;;;;;;45.90;19.97;;;6.30;99.90;;;;;;5087822;28;20212;-79
2022/12/01 05:01:30;;;;;;;44.97;21.63;;;6.30;99.90;;;;;;5087766;28;20203;-79
2022/12/01 05:03:55;;;;;;;46.97;21.57;;;6.30;99.90;;;;;;5087494;28;20711;-78
2022/12/01 05:06:24;;;;;;;50.00;22.90;;;6.30;99.90;;;;;;5086940;28;20246;-80
2022/12/01 05:08:50;;;;;;;50.03;22.63;;;6.30;99.90;;;;;;5086984;28;20195;-79
2022/12/01 05:11:17;;;;;;;57.37;24.37;;;6.30;99.90;;;;;;5087133;28;20207;-79
2022/12/01 05:13:45;;;;;;;61.43;25.03;;;6.30;99.90;;;;;;5086890;28;20260;-77
2022/12/01 05:16:16;;;;;;;56.33;24.37;;;6.30;99.90;;;;;;5085701;28;20178;-78
2022/12/01 05:18:42;;;;;;;55.57;24.47;;;6.20;99.90;;;;;;5084895;28;20236;-79
2022/12/01 05:21:09;;;;;;;53.77;23.23;;;6.30;99.90;;;;;;5083129;28;20232;-78
2022/12/01 05:23:36;;;;;;;52.87;22.43;;;6.30;99.90;;;;;;5086058;28;20644;-79
2022/12/01 05:26:05;;;;;;;57.43;24.83;;;6.30;99.90;;;;;;5086201;28;20182;-80
2022/12/01 05:28:31;;;;;;;59.50;25.47;;;6.20;99.90;;;;;;5081260;28;20337;-80
2022/12/01 05:30:56;;;;;;;59.90;24.73;;;6.20;99.90;;;;;;5081179;28;20236;-79
2022/12/01 05:33:23;;;;;;;61.87;25.00;;;6.20;99.90;;;;;;5080670;28;20613;-80
2022/12/01 05:35:49;;;;;;;52.83;25.37;;;6.30;99.90;;;;;;5082720;28;20262;-80
2022/12/01 05:38:15;;;;;;;58.17;26.80;;;6.20;99.90;;;;;;5082779;28;20613;-80
2022/12/01 05:40:41;;;;;;;58.90;25.93;;;6.20;99.90;;;;;;5082811;28;20668;-80
2022/12/01 05:43:07;;;;;;;59.27;25.20;;;6.10;99.90;;;;;;5081451;28;20183;-81
2022/12/01 05:45:33;;;;;;;52.97;24.80;;;6.20;99.90;;;;;;5082931;28;20311;-79
2022/12/01 05:48:00;;;;;;;56.50;24.03;;;6.20;99.90;;;;;;5080380;28;20175;-80
2022/12/01 05:50:28;;;;;;;55.43;24.50;;;6.20;99.90;;;;;;5081654;28;20182;-81
2022/12/01 05:52:53;;;;;;;57.53;24.93;;;6.20;99.90;;;;;;5082619;28;20238;-82
2022/12/01 05:55:19;;;;;;;58.07;23.20;;;6.20;99.90;;;;;;5083304;28;20213;-82
2022/12/01 05:57:45;;;;;;;56.60;25.07;;;6.20;99.90;;;;;;5084661;28;20683;-81
2022/12/01 06:00:12;;;;;;;55.20;23.60;;;6.20;99.90;;;;;;5091614;28;20234;-79
2022/12/01 06:02:41;;;;;;;57.67;25.23;;;6.20;99.90;;;;;;5093322;28;20371;-79
2022/12/01 06:05:07;;;;;;;58.50;24.63;;;6.20;99.90;;;;;;5090210;28;20198;-80
2022/12/01 06:07:34;;;;;;;61.67;25.03;;;6.20;99.90;;;;;;5079464;28;20702;-80
2022/12/01 06:10:00;;;;;;;58.00;23.20;;;6.20;99.90;;;;;;5077266;28;20209;-80
2022/12/01 06:12:26;;;;;;;45.77;22.50;;;6.20;99.90;;;;;;5077813;28;20236;-80
2022/12/01 06:14:51;;;;;;;50.40;23.00;;;6.20;99.90;;;;;;5079965;28;20629;-80
2022/12/01 06:17:17;;;;;;;53.60;24.10;;;6.20;99.90;;;;;;5080674;28;20204;-81
2022/12/01 06:19:42;;;;;;;49.70;22.57;;;6.20;99.90;;;;;;5079572;28;20629;-80
2022/12/01 06:22:09;;;;;;;54.00;23.93;;;6.20;99.90;;;;;;5079547;28;20219;-81
2022/12/01 06:24:34;;;;;;;54.07;22.60;;;6.20;99.90;;;;;;5081158;28;20171;-81
2022/12/01 06:27:00;;;;;;;52.00;22.30;;;6.20;99.90;;;;;;5079308;28;20531;-80
2022/12/01 06:29:25;;;;;;;54.80;21.80;;;6.20;99.90;;;;;;5076427;28;20209;-80
2022/12/01 06:31:51;;;;;;;48.57;22.33;;;6.20;99.90;;;;;;5078041;28;20266;-81
2022/12/01 06:34:16;;;;;;;47.90;21.87;;;6.20;99.90;;;;;;5076540;28;20186;-80
2022/12/01 06:36:42;;;;;;;52.60;20.00;;;6.10;99.90;;;;;;5075558;28;20221;-80
2022/12/01 06:39:08;;;;;;;52.00;21.30;;;6.20;99.90;;;;;;5076704;28;20179;-81
2022/12/01 06:41:37;;;;;;;45.43;20.90;;;6.20;99.90;;;;;;5076494;28;20206;-81
2022/12/01 06:44:03;;;;;;;47.80;21.87;;;6.20;99.90;;;;;;5075953;28;20179;-80
2022/12/01 06:46:29;;;;;;;43.97;20.40;;;6.10;99.90;;;;;;5075631;28;20795;-80
2022/12/01 06:48:54;;;;;;;44.43;19.57;;;6.20;99.90;;;;;;5076896;28;20195;-80
2022/12/01 06:51:20;;;;;;;41.90;19.90;;;6.10;99.90;;;;;;5077687;28;20632;-80
2022/12/01 06:53:46;;;;;;;46.80;20.63;;;6.10;99.90;;;;;;5078664;28;20170;-79
2022/12/01 06:56:11;;;;;;;45.80;20.87;;;6.10;99.90;;;;;;5079544;28;20179;-79
2022/12/01 06:58:37;;;;;;;49.53;21.87;;;6.20;99.90;;;;;;5078030;28;20179;-79
2022/12/01 07:01:10;;;;;;;48.37;20.93;;;6.10;99.90;;;;;;5080013;28;20199;-80
2022/12/01 07:03:37;;;;;;;60.57;22.27;;;6.10;99.90;;;;;;5076702;28;20236;-80
2022/12/01 07:06:03;;;;;;;54.07;24.30;;;6.10;99.90;;;;;;5079565;28;20183;-82
2022/12/01 07:08:30;;;;;;;44.30;21.57;;;6.10;99.90;;;;;;5080453;28;20202;-80
2022/12/01 07:11:01;;;;;;;50.73;22.30;;;6.20;99.90;;;;;;5080903;28;20213;-81
2022/12/01 07:13:27;;;;;;;55.90;23.27;;;6.20;99.90;;;;;;5079607;28;20235;-80
2022/12/01 07:15:52;;;;;;;53.80;24.10;;;6.10;99.90;;;;;;5080174;28;20201;-79
2022/12/01 07:18:18;;;;;;;53.97;23.10;;;6.10;99.90;;;;;;5083258;28;20171;-80
2022/12/01 07:20:44;;;;;;;52.50;22.97;;;6.10;99.90;;;;;;5083726;28;20199;-80
2022/12/01 07:23:09;;;;;;;47.60;23.07;;;6.20;99.90;;;;;;5078441;28;20190;-82
2022/12/01 07:25:35;;;;;;;52.97;22.33;;;6.20;99.90;;;;;;5076330;28;20320;-81
2022/12/01 07:28:00;;;;;;;50.30;21.83;;;6.20;99.90;;;;;;5083603;28;20277;-81
2022/12/01 07:30:26;;;;;;;50.50;22.40;;;6.20;99.90;;;;;;5084334;28;20246;-82
2022/12/01 07:32:51;;;;;;;58.83;23.00;;;6.30;99.90;;;;;;5085492;28;20179;-82
2022/12/01 07:35:17;;;;;;;53.80;23.70;;;6.30;99.90;;;;;;5087621;28;20706;-82
2022/12/01 07:37:42;;;;;;;63.73;25.47;;;6.20;99.90;;;;;;5085660;28;20175;-79
2022/12/01 07:40:09;;;;;;;59.07;25.13;;;6.20;99.90;;;;;;5081418;28;20175;-81
2022/12/01 07:42:35;;;;;;;56.63;25.80;;;6.20;99.90;;;;;;5079195;28;20187;-80
2022/12/01 07:45:00;;;;;;;54.47;23.10;;;6.20;99.90;;;;;;5078679;28;20190;-81
2022/12/01 07:47:26;;;;;;;54.33;23.27;;;6.20;99.90;;;;;;5078599;28;20186;-79
2022/12/01 07:49:51;;;;;;;59.53;24.23;;;6.20;99.90;;;;;;5080490;28;20718;-81
2022/12/01 07:52:17;;;;;;;54.33;24.43;;;6.20;99.90;;;;;;5079998;28;20203;-81
2022/12/01 07:54:42;;;;;;;66.43;26.70;;;6.20;99.90;;;;;;5078928;28;20185;-80
2022/12/01 07:57:08;;;;;;;60.63;23.87;;;6.20;99.90;;;;;;5079332;28;20185;-81
2022/12/01 07:59:34;;;;;;;59.83;26.10;;;6.20;99.90;;;;;;5079801;28;20171;-80
2022/12/01 08:01:59;;;;;;;59.77;25.17;;;6.20;99.90;;;;;;5076899;28;20205;-80
2022/12/01 08:04:25;;;;;;;68.87;27.90;;;6.20;99.90;;;;;;5073655;28;20228;-80
2022/12/01 08:06:50;;;;;;;57.00;25.87;;;6.20;99.90;;;;;;5073941;28;20175;-81
2022/12/01 08:09:16;;;;;;;57.23;24.80;;;6.20;99.90;;;;;;5075122;28;20205;-80
2022/12/01 08:11:41;;;;;;;63.00;26.13;;;6.20;99.90;;;;;;5075493;28;20211;-80
2022/12/01 08:14:07;;;;;;;57.90;24.77;;;6.20;99.90;;;;;;5074003;28;20185;-80
2022/12/01 08:16:32;;;;;;;58.57;24.73;;;6.20;99.90;;;;;;5077990;28;20237;-79
2022/12/01 08:18:58;;;;;;;53.70;24.27;;;6.30;99.90;;;;;;5081870;28;20182;-79
2022/12/01 08:21:23;;;;;;;46.23;22.97;;;6.30;99.90;;;;;;5082861;28;20190;-79
2022/12/01 08:23:54;;;;;;;52.93;23.53;;;6.30;99.90;;;;;;5082233;28;20205;-80
2022/12/01 08:26:20;;;;;;;52.30;23.87;;;6.30;99.90;;;;;;5081276;28;20205;-80
2022/12/01 08:28:47;;;;;;;60.57;25.10;;;6.30;99.90;;;;;;5082010;28;20238;-80
2022/12/01 08:31:16;;;;;;;51.00;23.23;;;6.30;99.90;;;;;;5081728;28;20213;-80
2022/12/01 08:33:41;;;;;;;43.77;21.97;;;6.30;99.90;;;;;;5083881;28;20521;-79
2022/12/01 08:36:07;;;;;;;51.00;22.87;;;6.40;99.90;;;;;;5083716;28;20175;-79
2022/12/01 08:38:33;;;;;;;51.37;23.00;;;6.40;99.90;;;;;;5083810;28;20178;-81
2022/12/01 08:41:05;;;;;;;50.63;22.57;;;6.30;99.90;;;;;;5086209;28;20195;-80
2022/12/01 08:43:30;;;;;;;56.73;23.43;;;6.40;99.90;;;;;;5085909;28;20196;-81
2022/12/01 08:46:00;;;;;;;50.73;23.30;;;6.30;99.90;;;;;;5086204;28;20178;-80
2022/12/01 08:48:28;;;;;;;54.93;24.40;;;6.30;99.90;;;;;;5082807;28;20237;-79
2022/12/01 08:51:04;;;;;;;50.37;22.80;;;6.40;99.90;;;;;;5078992;28;20216;-79
2022/12/01 08:53:30;;;;;;;57.03;24.77;;;6.30;99.90;;;;;;5077581;28;20163;-79
2022/12/01 08:55:59;;;;;;;55.03;24.43;;;6.40;99.90;;;;;;5076899;28;20545;-81
2022/12/01 08:58:25;;;;;;;49.90;23.77;;;6.40;99.90;;;;;;5081300;28;20176;-79
2022/12/01 09:00:50;;;;;;;50.87;23.30;;;6.40;99.90;;;;;;5083842;28;20251;-79
2022/12/01 09:03:16;;;;;;;57.73;24.53;;;6.40;99.90;;;;;;5084795;28;20234;-80
2022/12/01 09:05:41;;;;;;;56.90;23.67;;;6.40;99.90;;;;;;5083278;28;20203;-80
2022/12/01 09:10:52;;;;;;;54.10;23.63;;;6.40;99.90;;;;;;5077087;28;20252;-80
2022/12/01 09:13:17;;;;;;;55.20;23.63;;;6.40;99.90;;;;;;5075861;28;20197;-81
2022/12/01 09:15:43;;;;;;;54.70;24.87;;;6.40;99.90;;;;;;5078799;28;20652;-81
2022/12/01 09:18:08;;;;;;;55.23;25.17;;;6.40;99.90;;;;;;5089873;28;20166;-79
2022/12/01 09:20:34;;;;;;;56.97;24.73;;;6.40;99.90;;;;;;5095414;28;20186;-81
2022/12/01 09:22:59;;;;;;;53.73;25.70;;;6.40;99.90;;;;;;5090915;28;20167;-80
2022/12/01 09:25:25;;;;;;;48.73;23.33;;;6.40;99.90;;;;;;5077295;28;20625;-79
2022/12/01 09:27:50;;;;;;;46.87;21.87;;;6.50;99.90;;;;;;5078363;28;20167;-80
2022/12/01 09:30:16;;;;;;;46.73;23.37;;;6.50;99.90;;;;;;5076642;28;20591;-80
2022/12/01 09:32:42;;;;;;;47.57;23.33;;;6.40;99.90;;;;;;5076584;28;20199;-80
2022/12/01 09:35:07;;;;;;;45.03;21.57;;;6.50;99.90;;;;;;5076291;28;20179;-80
2022/12/01 09:37:33;;;;;;;46.20;22.43;;;6.40;99.90;;;;;;5078763;28;20182;-80
2022/12/01 09:39:58;;;;;;;47.40;23.00;;;6.40;99.90;;;;;;5083369;28;20182;-80
2022/12/01 09:42:26;;;;;;;46.87;23.33;;;6.50;99.90;;;;;;5081206;28;20202;-79
2022/12/01 09:44:54;;;;;;;50.13;23.33;;;6.50;99.90;;;;;;5083244;28;20174;-80
2022/12/01 09:47:25;;;;;;;46.27;21.83;;;6.50;99.90;;;;;;5084949;28;20171;-80
2022/12/01 09:50:12;;;;;;;50.13;23.97;;;6.50;99.90;;;;;;5082768;28;20549;-79
2022/12/01 09:52:50;;;;;;;53.27;23.40;;;6.50;99.90;;;;;;5082817;28;20687;-80
2022/12/01 09:55:18;;;;;;;46.10;22.63;;;6.50;99.90;;;;;;5081800;28;20168;-79
2022/12/01 09:57:47;;;;;;;42.30;20.80;;;6.50;99.90;;;;;;5083994;28;20167;-79
2022/12/01 10:00:13;;;;;;;42.73;21.07;;;6.50;99.90;;;;;;5081288;28;20171;-80
2022/12/01 10:02:42;;;;;;;39.63;19.33;;;6.50;99.90;;;;;;5079917;28;20202;-80
2022/12/01 10:05:15;;;;;;;42.87;21.50;;;6.50;99.90;;;;;;5078990;28;20272;-80
2022/12/01 10:07:55;;;;;;;41.07;21.23;;;6.50;99.90;;;;;;5080212;28;20171;-80
2022/12/01 10:10:38;;;;;;;39.47;20.37;;;6.50;99.90;;;;;;5080369;28;20191;-80
2022/12/01 10:13:18;;;;;;;45.10;19.97;;;6.50;99.90;;;;;;5082759;28;20186;-80
2022/12/01 10:15:53;;;;;;;39.17;20.27;;;6.50;99.90;;;;;;5082278;28;20632;-80
2022/12/01 10:18:41;;;;;;;42.37;21.23;;;6.50;99.90;;;;;;5083529;28;20170;-80
2022/12/01 10:21:56;;;;;;;42.23;21.63;;;6.50;99.90;;;;;;5083317;28;20194;-80
2022/12/01 10:24:28;;;;;;;39.77;21.50;;;6.50;99.90;;;;;;5081571;28;20185;-79
2022/12/01 10:26:58;;;;;;;41.40;23.60;;;6.50;99.90;;;;;;5081036;28;20170;-79
2022/12/01 10:29:29;;;;;;;43.83;23.33;;;6.60;99.90;;;;;;5080885;28;20223;-80
2022/12/01 10:32:08;;;;;;;45.87;23.40;;;6.60;99.90;;;;;;5080300;28;20198;-79
2022/12/01 10:34:38;;;;;;;46.20;23.40;;;6.40;99.90;;;;;;5081797;28;20177;-80
2022/12/01 10:37:04;;;;;;;38.33;20.73;;;6.50;99.90;;;;;;5080722;28;20522;-79
2022/12/01 10:39:37;;;;;;;40.87;22.20;;;6.50;99.90;;;;;;5079269;28;20196;-79
2022/12/01 10:42:12;;;;;;;47.27;22.63;;;6.50;99.90;;;;;;5082470;28;20727;-80
2022/12/01 10:44:39;;;;;;;41.30;22.47;;;6.50;99.90;;;;;;5081081;28;20178;-80
2022/12/01 10:47:17;;;;;;;46.50;23.00;;;6.50;99.90;;;;;;5081996;28;20228;-80
2022/12/01 10:49:42;;;;;;;44.70;23.27;;;6.60;99.90;;;;;;5082280;28;20243;-80
2022/12/01 10:52:26;;;;;;;44.33;22.50;;;6.50;99.90;;;;;;5080114;28;20226;-80
2022/12/01 10:54:52;;;;;;;41.20;21.90;;;6.50;99.90;;;;;;5081949;28;20734;-80
2022/12/01 10:57:17;;;;;;;42.00;21.60;;;6.50;99.90;;;;;;5082342;28;20179;-81
2022/12/01 10:59:50;;;;;;;39.23;21.13;;;6.50;99.90;;;;;;5083064;28;20183;-81
2022/12/01 11:02:22;;;;;;;44.77;21.10;;;6.50;99.90;;;;;;5084326;28;20208;-80
2022/12/01 11:04:58;;;;;;;43.33;19.40;;;6.40;99.90;;;;;;5083709;28;20242;-80
2022/12/01 11:07:34;;;;;;;42.77;20.87;;;6.40;99.90;;;;;;5084339;28;20205;-80
2022/12/01 11:10:11;;;;;;;38.13;19.27;;;6.40;99.90;;;;;;5084188;28;20216;-80
2022/12/01 11:12:38;;;;;;;38.50;18.87;;;6.40;99.90;;;;;;5082326;28;20228;-81
2022/12/01 11:15:04;;;;;;;37.43;18.70;;;6.40;99.90;;;;;;5084603;28;20236;-80
2022/12/01 11:17:30;;;;;;;40.20;19.00;;;6.40;99.90;;;;;;5081311;28;20179;-80
2022/12/01 11:19:56;;;;;;;34.73;18.53;;;6.40;99.90;;;;;;5082749;28;20200;-81
2022/12/01 11:22:25;;;;;;;35.37;17.87;;;6.40;99.90;;;;;;5083622;28;20201;-80
2022/12/01 11:25:01;;;;;;;36.57;18.07;;;6.40;99.90;;;;;;5084884;28;20181;-80
2022/12/01 11:27:33;;;;;;;37.77;18.20;;;6.40;99.90;;;;;;5083692;28;20182;-79
2022/12/01 11:30:06;;;;;;;35.57;18.00;;;6.50;99.90;;;;;;5079595;28;20606;-81
2022/12/01 11:32:35;;;;;;;36.67;17.40;;;6.50;99.90;;;;;;5077923;28;20226;-83
2022/12/01 11:35:15;;;;;;;34.60;17.17;;;6.40;99.90;;;;;;5079335;28;20205;-80
2022/12/01 11:37:54;;;;;;;35.67;16.77;;;6.40;99.90;;;;;;5086247;28;20159;-81
2022/12/01 11:40:23;;;;;;;29.03;15.40;;;6.40;99.90;;;;;;5087125;28;20175;-80
2022/12/01 11:42:51;;;;;;;28.30;15.07;;;6.40;99.90;;;;;;5086095;28;20175;-80
2022/12/01 11:45:19;;;;;;;35.33;16.13;;;6.40;99.90;;;;;;5086357;28;20221;-81
2022/12/01 11:47:59;;;;;;;29.23;16.13;;;6.40;99.90;;;;;;5086267;28;20182;-80
2022/12/01 11:50:27;;;;;;;26.07;14.20;;;6.40;99.90;;;;;;5084712;28;20205;-81
2022/12/01 11:52:52;;;;;;;33.83;16.43;;;6.50;99.90;;;;;;5083067;28;20200;-81
2022/12/01 11:55:21;;;;;;;37.03;16.97;;;6.50;99.90;;;;;;5100387;22;20170;-79
2022/12/01 11:57:49;;;;;;;29.50;15.87;;;6.60;99.90;;;;;;5081491;28;20166;-79
2022/12/01 12:00:24;;;;;;;35.47;18.77;;;6.60;99.90;;;;;;5078814;28;20174;-80
2022/12/01 12:03:17;;;;;;;27.07;15.63;;;6.60;99.90;;;;;;5079108;28;20564;-81
2022/12/01 12:05:51;;;;;;;32.63;17.93;;;6.70;99.90;;;;;;5080593;28;20615;-80
2022/12/01 12:08:34;;;;;;;36.03;18.77;;;6.80;99.90;;;;;;5080375;28;20195;-80
2022/12/01 12:11:30;;;;;;;32.50;18.97;;;6.80;99.90;;;;;;5081965;28;20660;-80
2022/12/01 12:14:21;;;;;;;31.30;17.73;;;6.80;99.90;;;;;;5079863;28;20159;-80
2022/12/01 12:17:23;;;;;;;31.83;17.13;;;6.80;99.90;;;;;;5079585;28;20190;-80
2022/12/01 12:19:58;;;;;;;34.07;17.27;;;6.90;99.90;;;;;;5079815;28;20182;-80
2022/12/01 12:22:35;;;;;;;32.53;17.40;;;7.00;99.90;;;;;;5078084;28;20158;-81
2022/12/01 12:25:10;;;;;;;30.83;17.50;;;7.00;99.90;;;;;;5077877;28;20190;-82
2022/12/01 12:28:20;;;;;;;33.23;19.87;;;6.90;99.90;;;;;;5076437;28;20534;-80
2022/12/01 12:31:06;;;;;;;32.47;18.53;;;6.90;99.90;;;;;;5078726;28;20198;-80
2022/12/01 12:33:52;;;;;;;37.77;21.13;;;6.90;99.90;;;;;;5067672;28;20572;-80
2022/12/01 12:36:41;;;;;;;35.70;21.13;;;6.90;99.90;;;;;;5076220;28;20223;-80
2022/12/01 12:39:23;;;;;;;37.63;20.30;;;7.00;99.90;;;;;;5078391;28;20674;-80
2022/12/01 12:41:53;;;;;;;33.33;19.63;;;7.00;99.90;;;;;;5078818;28;20164;-80
2022/12/01 12:44:37;;;;;;;35.77;20.37;;;6.90;99.90;;;;;;5075593;28;20178;-80
2022/12/01 12:47:36;;;;;;;36.57;19.83;;;6.90;99.90;;;;;;5078221;28;20193;-80
2022/12/01 12:50:15;;;;;;;35.00;18.77;;;7.00;99.90;;;;;;5078802;28;20190;-81
2022/12/01 12:52:52;;;;;;;39.80;20.03;;;7.00;99.90;;;;;;5080759;28;20155;-80
2022/12/01 12:55:31;;;;;;;36.20;20.93;;;7.00;99.90;;;;;;5079938;28;20254;-81